Time;durP1;ratioP1;P1;durP2;ratioP2;P2;SDS_P1;SDS_P2;PMS_P1;PMS_P2;Temp;Humidity;BMP_temperature;BMP_pressure;BME280_temperature;BME280_humidity;BME280_pressure;Samples;Min_cycle;Max_cycle;Signal;HPM_P1;HPM_P2
2021/01/01 00:01:47;;;;;;;26.02;16.65;;;1.90;99.90;;;;;;5053399;28;20029;-70
2021/01/01 00:04:12;;;;;;;26.33;17.80;;;1.90;99.90;;;;;;5052098;28;20021;-70
2021/01/01 00:06:38;;;;;;;30.52;18.70;;;2.00;99.90;;;;;;5051174;28;20175;-70
2021/01/01 00:09:05;;;;;;;31.92;19.85;;;1.90;99.90;;;;;;5053262;28;20028;-70
2021/01/01 00:11:31;;;;;;;49.03;28.65;;;1.90;99.90;;;;;;5053222;28;20090;-70
2021/01/01 00:13:57;;;;;;;50.78;28.60;;;1.90;99.90;;;;;;5051927;28;20111;-70
2021/01/01 00:16:22;;;;;;;52.85;30.70;;;1.90;99.90;;;;;;5052329;28;20107;-70
2021/01/01 00:18:48;;;;;;;47.33;30.45;;;2.00;99.90;;;;;;5051761;28;20021;-70
2021/01/01 00:21:14;;;;;;;56.30;32.75;;;2.00;99.90;;;;;;5051639;28;20075;-70
2021/01/01 00:23:39;;;;;;;50.15;30.30;;;1.90;99.90;;;;;;5052900;28;20021;-70
2021/01/01 00:26:12;;;;;;;51.40;31.95;;;1.90;99.90;;;;;;5052435;28;20353;-70
2021/01/01 00:28:42;;;;;;;38.55;23.40;;;1.90;99.90;;;;;;5052941;28;20033;-70
2021/01/01 00:31:13;;;;;;;39.38;24.23;;;1.90;99.90;;;;;;5052846;28;20029;-70
2021/01/01 00:33:38;;;;;;;41.95;25.23;;;1.80;99.90;;;;;;5052767;28;20052;-70
2021/01/01 00:36:04;;;;;;;56.88;33.60;;;1.90;99.90;;;;;;5051977;28;20122;-70
2021/01/01 00:38:30;;;;;;;54.25;32.33;;;1.90;99.90;;;;;;5051252;28;20025;-70
2021/01/01 00:40:55;;;;;;;55.80;33.67;;;2.00;99.90;;;;;;5052724;28;20021;-70
2021/01/01 00:43:21;;;;;;;49.47;29.15;;;1.80;99.90;;;;;;5052134;28;20024;-70
2021/01/01 00:45:46;;;;;;;45.35;28.63;;;1.70;99.90;;;;;;5051733;28;20419;-70
2021/01/01 00:48:12;;;;;;;45.80;27.27;;;1.60;99.90;;;;;;5052028;28;20036;-70
2021/01/01 00:50:37;;;;;;;49.00;28.27;;;1.60;99.90;;;;;;5052640;28;20120;-70
2021/01/01 00:53:03;;;;;;;49.90;29.27;;;1.60;99.90;;;;;;5051314;28;20025;-70
2021/01/01 00:55:28;;;;;;;54.20;29.90;;;1.60;99.90;;;;;;5052460;28;20087;-70
2021/01/01 00:57:54;;;;;;;55.22;31.23;;;1.60;99.90;;;;;;5051870;28;20504;-70
2021/01/01 01:00:20;;;;;;;51.80;28.85;;;1.60;99.90;;;;;;5051310;28;20033;-70
2021/01/01 01:02:45;;;;;;;46.38;27.27;;;1.50;99.90;;;;;;5052433;28;20029;-70
2021/01/01 01:05:11;;;;;;;45.00;26.27;;;1.50;99.90;;;;;;5050930;28;20554;-70
2021/01/01 01:07:37;;;;;;;40.97;23.60;;;1.50;99.90;;;;;;5051648;28;20037;-70
2021/01/01 01:10:03;;;;;;;39.53;22.65;;;1.40;99.90;;;;;;5052309;28;20021;-70
2021/01/01 01:12:29;;;;;;;31.73;18.35;;;1.40;99.90;;;;;;5052378;28;20095;-70
2021/01/01 01:14:56;;;;;;;35.20;19.70;;;1.40;99.90;;;;;;5052288;28;20157;-70
2021/01/01 01:17:21;;;;;;;31.38;18.27;;;1.40;99.90;;;;;;5051552;28;20025;-70
2021/01/01 01:19:46;;;;;;;40.95;23.25;;;1.40;99.90;;;;;;5052388;28;20524;-70
2021/01/01 01:22:12;;;;;;;42.80;22.90;;;1.40;99.90;;;;;;5053366;28;20029;-75
2021/01/01 01:24:38;;;;;;;40.58;23.58;;;1.50;99.90;;;;;;5052178;28;20017;-71
2021/01/01 01:27:03;;;;;;;41.60;23.08;;;1.50;99.90;;;;;;5051594;28;20518;-71
2021/01/01 01:29:29;;;;;;;42.20;23.02;;;1.50;99.90;;;;;;5051221;28;20029;-71
2021/01/01 01:31:54;;;;;;;42.38;23.77;;;1.50;99.90;;;;;;5052124;28;20061;-71
2021/01/01 01:34:20;;;;;;;41.30;23.58;;;1.50;99.90;;;;;;5050694;28;20020;-71
2021/01/01 01:36:45;;;;;;;43.72;24.65;;;1.50;99.90;;;;;;5049961;28;20037;-71
2021/01/01 01:39:11;;;;;;;41.25;23.23;;;1.50;99.90;;;;;;5051912;28;20036;-70
2021/01/01 01:41:36;;;;;;;39.83;22.73;;;1.40;99.90;;;;;;5051823;28;20025;-70
2021/01/01 01:44:02;;;;;;;40.92;22.63;;;1.40;99.90;;;;;;5051758;28;20025;-70
2021/01/01 01:46:42;;;;;;;43.63;23.83;;;1.40;99.90;;;;;;5051085;28;20033;-70
2021/01/01 01:49:10;;;;;;;42.80;22.63;;;1.40;99.90;;;;;;5051746;28;20503;-70
2021/01/01 01:51:36;;;;;;;40.47;23.08;;;1.40;99.90;;;;;;5051639;28;20032;-71
2021/01/01 01:54:02;;;;;;;38.95;21.83;;;1.40;99.90;;;;;;5050219;28;20025;-71
2021/01/01 01:56:29;;;;;;;43.72;22.23;;;1.40;99.90;;;;;;5050779;28;20163;-71
2021/01/01 01:58:55;;;;;;;42.08;23.85;;;1.40;99.90;;;;;;5050974;28;20100;-71
2021/01/01 02:01:22;;;;;;;40.33;22.42;;;1.30;99.90;;;;;;5051419;28;20017;-71
2021/01/01 02:03:47;;;;;;;39.78;21.45;;;1.30;99.90;;;;;;5050230;28;20032;-71
2021/01/01 02:06:13;;;;;;;35.90;21.42;;;1.30;99.90;;;;;;5050636;28;20391;-71
2021/01/01 02:08:39;;;;;;;39.78;20.52;;;1.30;99.90;;;;;;5050048;28;20198;-71
2021/01/01 02:11:05;;;;;;;39.25;20.65;;;1.30;99.90;;;;;;5049946;28;20511;-71
2021/01/01 02:13:31;;;;;;;39.05;20.90;;;1.40;99.90;;;;;;5049932;28;20052;-71
2021/01/01 02:15:57;;;;;;;37.50;20.95;;;1.40;99.90;;;;;;5050956;28;20061;-71
2021/01/01 02:18:37;;;;;;;37.33;19.17;;;1.40;99.90;;;;;;5050533;28;20032;-71
2021/01/01 02:21:04;;;;;;;37.00;19.52;;;1.30;99.90;;;;;;5051056;28;20103;-71
2021/01/01 02:23:29;;;;;;;32.65;19.10;;;1.30;99.90;;;;;;5050037;28;20372;-71
2021/01/01 02:25:55;;;;;;;34.70;17.90;;;1.40;99.90;;;;;;5049657;28;20036;-71
2021/01/01 02:28:21;;;;;;;39.47;19.67;;;1.50;99.90;;;;;;5050397;28;20033;-70
2021/01/01 02:30:47;;;;;;;35.55;19.10;;;1.50;99.90;;;;;;5051022;28;20033;-71
2021/01/01 02:33:12;;;;;;;33.67;18.42;;;1.40;99.90;;;;;;5049637;28;20033;-70
2021/01/01 02:35:38;;;;;;;38.08;20.10;;;1.40;99.90;;;;;;5050676;28;20029;-71
2021/01/01 02:38:03;;;;;;;33.95;18.45;;;1.30;99.90;;;;;;5050267;28;20070;-71
2021/01/01 02:40:29;;;;;;;37.58;20.10;;;1.40;99.90;;;;;;5050876;28;20021;-71
2021/01/01 02:42:54;;;;;;;32.47;18.38;;;1.40;99.90;;;;;;5049499;28;20025;-70
2021/01/01 02:45:20;;;;;;;33.78;18.63;;;1.40;99.90;;;;;;5050765;28;20064;-71
2021/01/01 02:47:45;;;;;;;39.00;20.80;;;1.40;99.90;;;;;;5050424;28;20029;-71
2021/01/01 02:50:12;;;;;;;41.05;20.55;;;1.40;99.90;;;;;;5049485;28;20021;-71
2021/01/01 02:52:38;;;;;;;35.53;19.48;;;1.40;99.90;;;;;;5050739;28;20020;-71
2021/01/01 02:55:04;;;;;;;34.00;19.23;;;1.50;99.90;;;;;;5050705;28;20025;-71
2021/01/01 02:57:30;;;;;;;40.10;20.85;;;1.50;99.90;;;;;;5048674;28;20032;-71
2021/01/01 02:59:55;;;;;;;38.17;20.75;;;1.70;99.90;;;;;;5050777;28;20037;-71
2021/01/01 03:02:21;;;;;;;39.05;21.98;;;1.80;99.90;;;;;;5050715;28;20538;-71
2021/01/01 03:04:46;;;;;;;39.33;21.60;;;1.70;99.90;;;;;;5050720;28;20091;-71
2021/01/01 03:07:12;;;;;;;38.03;20.85;;;1.60;99.90;;;;;;5048752;28;20060;-71
2021/01/01 03:09:37;;;;;;;37.83;20.60;;;1.40;99.90;;;;;;5050883;28;20032;-71
2021/01/01 03:12:03;;;;;;;38.97;21.17;;;1.40;99.90;;;;;;5054697;28;20025;-70
2021/01/01 03:14:28;;;;;;;38.85;21.33;;;1.40;99.90;;;;;;5053344;28;20036;-71
2021/01/01 03:16:54;;;;;;;43.85;23.42;;;1.40;99.90;;;;;;5053838;28;20392;-71
2021/01/01 03:19:19;;;;;;;38.78;21.63;;;1.30;99.90;;;;;;5053277;28;20391;-71
2021/01/01 03:21:45;;;;;;;38.97;21.42;;;1.30;99.90;;;;;;5054618;28;20027;-71
2021/01/01 03:24:10;;;;;;;36.63;21.15;;;1.30;99.90;;;;;;5054486;28;20099;-70
2021/01/01 03:26:36;;;;;;;45.20;23.02;;;1.30;99.90;;;;;;5053765;28;20029;-70
2021/01/01 03:29:01;;;;;;;43.40;22.30;;;1.30;99.90;;;;;;5054297;28;20051;-71
2021/01/01 03:31:27;;;;;;;42.10;21.35;;;1.20;99.90;;;;;;5054299;28;20383;-71
2021/01/01 03:33:53;;;;;;;41.83;21.10;;;1.30;99.90;;;;;;5054191;28;20025;-71
2021/01/01 03:36:18;;;;;;;37.67;19.75;;;1.30;99.90;;;;;;5053286;28;20086;-71
2021/01/01 03:38:46;;;;;;;36.67;20.00;;;1.30;99.90;;;;;;5052813;28;20083;-71
2021/01/01 03:41:12;;;;;;;40.10;21.13;;;1.20;99.90;;;;;;5052842;28;20028;-71
2021/01/01 03:43:38;;;;;;;35.50;19.75;;;1.10;99.90;;;;;;5054088;28;20538;-71
2021/01/01 03:46:03;;;;;;;52.00;25.30;;;1.00;99.90;;;;;;5053391;28;20032;-71
2021/01/01 03:48:29;;;;;;;38.03;19.60;;;0.90;99.90;;;;;;5053707;28;20029;-71
2021/01/01 03:50:54;;;;;;;41.95;21.42;;;0.90;99.90;;;;;;5052608;28;20036;-71
2021/01/01 03:53:20;;;;;;;37.63;19.67;;;0.90;99.90;;;;;;5051857;28;20029;-71
2021/01/01 03:55:46;;;;;;;40.63;19.52;;;1.20;99.90;;;;;;5053660;28;20131;-71
2021/01/01 03:58:11;;;;;;;37.75;20.05;;;1.10;99.90;;;;;;5053218;28;20017;-71
2021/01/01 04:00:37;;;;;;;38.90;19.50;;;1.10;99.90;;;;;;5053652;28;20028;-71
2021/01/01 04:03:02;;;;;;;36.30;18.10;;;1.20;99.90;;;;;;5053627;28;20092;-71
2021/01/01 04:05:28;;;;;;;36.22;19.40;;;1.30;99.90;;;;;;5052215;28;20049;-71
2021/01/01 04:07:53;;;;;;;37.17;19.02;;;1.30;99.90;;;;;;5052993;28;20483;-71
2021/01/01 04:10:19;;;;;;;38.65;19.60;;;1.40;99.90;;;;;;5053634;28;20028;-71
2021/01/01 04:12:45;;;;;;;39.22;19.75;;;1.40;99.90;;;;;;5053602;28;20104;-71
2021/01/01 04:15:11;;;;;;;38.15;19.05;;;1.30;99.90;;;;;;5052359;28;20032;-71
2021/01/01 04:17:37;;;;;;;36.47;19.30;;;1.30;99.90;;;;;;5051797;28;20029;-71
2021/01/01 04:20:03;;;;;;;37.03;18.88;;;1.20;99.90;;;;;;5052243;28;20029;-71
2021/01/01 04:22:29;;;;;;;34.83;17.83;;;1.20;99.90;;;;;;5053152;28;20026;-71
2021/01/01 04:24:55;;;;;;;37.88;19.88;;;1.20;99.90;;;;;;5053377;28;20483;-71
2021/01/01 04:27:20;;;;;;;39.10;18.63;;;1.30;99.90;;;;;;5051504;28;20029;-71
2021/01/01 04:29:46;;;;;;;34.53;17.70;;;1.30;99.90;;;;;;5053169;28;20052;-72
2021/01/01 04:32:11;;;;;;;34.67;18.08;;;1.30;99.90;;;;;;5053235;28;20487;-71
2021/01/01 04:34:37;;;;;;;37.05;18.33;;;1.30;99.90;;;;;;5053006;28;20029;-71
2021/01/01 04:37:02;;;;;;;34.15;19.08;;;1.30;99.90;;;;;;5052276;28;20033;-71
2021/01/01 04:39:28;;;;;;;36.30;18.90;;;1.30;99.90;;;;;;5051676;28;20021;-70
2021/01/01 04:41:54;;;;;;;33.22;17.92;;;1.50;99.90;;;;;;5052897;28;20024;-70
2021/01/01 04:44:22;;;;;;;32.75;16.92;;;1.60;99.90;;;;;;5052786;28;20451;-71
2021/01/01 04:46:49;;;;;;;33.60;16.98;;;1.60;99.90;;;;;;5051189;28;20495;-71
2021/01/01 04:49:14;;;;;;;38.05;19.25;;;1.50;99.90;;;;;;5051528;28;20029;-71
2021/01/01 04:51:41;;;;;;;36.53;18.50;;;1.40;99.90;;;;;;5052764;28;20155;-71
2021/01/01 04:54:08;;;;;;;32.50;17.60;;;1.40;99.90;;;;;;5052730;28;20033;-71
2021/01/01 04:56:33;;;;;;;33.17;17.38;;;1.40;99.90;;;;;;5051899;28;20025;-71
2021/01/01 04:59:01;;;;;;;35.78;17.65;;;1.40;99.90;;;;;;5052534;28;20025;-70
2021/01/01 05:01:26;;;;;;;42.00;18.30;;;1.30;99.90;;;;;;5052593;28;20648;-71
2021/01/01 05:03:52;;;;;;;32.45;17.92;;;1.30;99.90;;;;;;5052496;28;20044;-71
2021/01/01 05:06:28;;;;;;;32.70;17.63;;;1.30;99.90;;;;;;5050436;28;20116;-71
2021/01/01 05:08:54;;;;;;;33.05;17.70;;;1.30;99.90;;;;;;5052510;28;20622;-71
2021/01/01 05:11:22;;;;;;;34.25;17.90;;;1.30;99.90;;;;;;5052348;28;20108;-70
2021/01/01 05:13:58;;;;;;;34.28;17.98;;;1.20;99.90;;;;;;5052352;28;20031;-71
2021/01/01 05:16:24;;;;;;;38.25;18.65;;;1.20;99.90;;;;;;5050197;28;20434;-71
2021/01/01 05:18:49;;;;;;;30.02;16.65;;;1.20;99.90;;;;;;5050892;28;20028;-71
2021/01/01 05:21:41;;;;;;;30.17;15.93;;;1.40;99.90;;;;;;5052157;28;20021;-70
2021/01/01 05:24:14;;;;;;;28.65;15.40;;;1.60;99.90;;;;;;5047878;28;20080;-71
2021/01/01 05:26:48;;;;;;;31.20;15.52;;;1.60;99.90;;;;;;5051468;28;20029;-71
2021/01/01 05:29:20;;;;;;;29.15;16.65;;;1.50;99.90;;;;;;5050709;28;20549;-70
2021/01/01 05:31:46;;;;;;;29.25;15.93;;;1.40;99.90;;;;;;5051760;28;20029;-70
2021/01/01 05:34:13;;;;;;;28.77;15.23;;;1.40;99.90;;;;;;5051342;28;20025;-71
2021/01/01 05:36:38;;;;;;;32.55;16.95;;;1.40;99.90;;;;;;5049819;28;20112;-70
2021/01/01 05:39:18;;;;;;;27.65;16.20;;;1.30;99.90;;;;;;5051909;28;20105;-71
2021/01/01 05:41:45;;;;;;;29.40;15.45;;;1.30;99.90;;;;;;5051856;28;20021;-70
2021/01/01 05:44:25;;;;;;;30.45;15.80;;;1.30;99.90;;;;;;5050349;28;20024;-70
2021/01/01 05:47:05;;;;;;;27.98;14.75;;;1.30;99.90;;;;;;5051166;28;20510;-71
2021/01/01 05:49:32;;;;;;;26.77;14.32;;;1.30;99.90;;;;;;5050480;28;20033;-70
2021/01/01 05:52:07;;;;;;;28.02;15.40;;;1.20;99.90;;;;;;5050343;28;20114;-70
2021/01/01 05:54:34;;;;;;;28.52;15.02;;;1.20;99.90;;;;;;5051627;28;20106;-70
2021/01/01 05:57:03;;;;;;;28.63;15.98;;;1.10;99.90;;;;;;5049593;28;20025;-71
2021/01/01 05:59:29;;;;;;;29.67;15.48;;;1.10;99.90;;;;;;5050337;28;20021;-71
2021/01/01 06:01:58;;;;;;;29.08;15.10;;;1.20;99.90;;;;;;5050323;28;20384;-71
2021/01/01 06:04:24;;;;;;;27.13;14.63;;;1.30;99.90;;;;;;5051409;28;20021;-70
2021/01/01 06:06:53;;;;;;;28.15;14.50;;;1.40;99.90;;;;;;5049531;28;20025;-71
2021/01/01 06:09:22;;;;;;;26.92;14.70;;;1.50;99.90;;;;;;5050362;28;20436;-70
2021/01/01 06:12:00;;;;;;;33.42;17.88;;;1.50;99.90;;;;;;5051614;28;20029;-71
2021/01/01 06:14:36;;;;;;;29.42;15.25;;;1.50;99.90;;;;;;5051585;28;20028;-71
2021/01/01 06:17:17;;;;;;;29.08;15.40;;;1.40;99.90;;;;;;5050516;28;20039;-70
2021/01/01 06:19:54;;;;;;;26.77;14.75;;;1.40;99.90;;;;;;5051298;28;20495;-70
2021/01/01 06:22:21;;;;;;;29.17;15.13;;;1.30;99.90;;;;;;5051117;28;20025;-70
2021/01/01 06:24:52;;;;;;;28.67;15.38;;;1.20;99.90;;;;;;5051057;28;20017;-70
2021/01/01 06:27:20;;;;;;;25.98;14.07;;;1.20;99.90;;;;;;5048987;28;20028;-70
2021/01/01 06:30:08;;;;;;;26.55;13.80;;;1.10;99.90;;;;;;5050968;28;20032;-71
2021/01/01 06:32:34;;;;;;;27.08;14.75;;;1.20;99.90;;;;;;5049737;28;20119;-71
2021/01/01 06:35:21;;;;;;;28.90;14.85;;;1.20;99.90;;;;;;5050753;28;20459;-70
2021/01/01 06:37:48;;;;;;;24.83;13.93;;;1.30;99.90;;;;;;5050265;28;20040;-70
2021/01/01 06:40:20;;;;;;;23.85;13.10;;;1.30;99.90;;;;;;5049607;28;20025;-71
2021/01/01 06:42:57;;;;;;;27.23;13.98;;;1.30;99.90;;;;;;5049375;28;20025;-71
2021/01/01 06:45:46;;;;;;;24.70;13.25;;;1.30;99.90;;;;;;5050451;28;20427;-70
2021/01/01 06:48:21;;;;;;;24.20;12.57;;;1.50;99.90;;;;;;5048800;28;20082;-70
2021/01/01 06:50:51;;;;;;;23.17;12.50;;;1.50;99.90;;;;;;5050694;28;20029;-74
2021/01/01 06:53:18;;;;;;;27.17;13.50;;;1.40;99.90;;;;;;5049512;28;20075;-71
2021/01/01 06:55:48;;;;;;;26.30;13.50;;;1.40;99.90;;;;;;5050446;28;20472;-71
2021/01/01 06:58:24;;;;;;;23.33;13.40;;;1.50;99.90;;;;;;5050115;28;20371;-70
2021/01/01 07:00:50;;;;;;;28.60;12.80;;;1.50;99.90;;;;;;5050752;28;20103;-71
2021/01/01 07:03:27;;;;;;;24.25;12.80;;;1.50;99.90;;;;;;5050662;28;20100;-71
2021/01/01 07:05:53;;;;;;;26.35;13.38;;;1.50;99.90;;;;;;5050576;28;20025;-69
2021/01/01 07:08:44;;;;;;;25.63;14.25;;;1.50;99.90;;;;;;5049959;28;20479;-69
2021/01/01 07:11:09;;;;;;;;;;;1.50;99.90;;;;;;5051344;28;20025;-69
2021/01/01 07:13:49;;;;;;;27.50;14.15;;;1.60;99.90;;;;;;5049495;28;20382;-70
2021/01/01 07:16:18;;;;;;;25.50;14.20;;;1.60;99.90;;;;;;5048877;28;20034;-71
2021/01/01 07:18:43;;;;;;;26.13;14.30;;;1.50;99.90;;;;;;5049696;28;20475;-71
2021/01/01 07:21:11;;;;;;;26.60;14.23;;;1.50;99.90;;;;;;5049496;28;20032;-72
2021/01/01 07:23:38;;;;;;;27.85;14.40;;;1.40;99.90;;;;;;5049521;28;20495;-72
2021/01/01 07:26:07;;;;;;;27.08;14.60;;;1.40;99.90;;;;;;5050225;28;20514;-72
2021/01/01 07:28:33;;;;;;;26.90;14.18;;;1.40;99.90;;;;;;5051011;28;20044;-72
2021/01/01 07:30:59;;;;;;;27.85;14.27;;;1.40;99.90;;;;;;5049479;28;20029;-71
2021/01/01 07:33:29;;;;;;;25.20;13.73;;;1.40;99.90;;;;;;5049581;28;20029;-72
2021/01/01 07:36:03;;;;;;;34.25;19.02;;;1.30;99.90;;;;;;5049228;28;20029;-72
2021/01/01 07:38:31;;;;;;;34.03;18.98;;;1.40;99.90;;;;;;5050445;28;20026;-71
2021/01/01 07:40:58;;;;;;;23.40;13.98;;;1.50;99.90;;;;;;5050540;28;20040;-71
2021/01/01 07:43:24;;;;;;;25.52;13.77;;;1.40;99.90;;;;;;5050464;28;20017;-71
2021/01/01 07:45:49;;;;;;;29.50;16.05;;;1.60;99.90;;;;;;5049245;28;20021;-72
2021/01/01 07:48:15;;;;;;;26.92;14.50;;;1.50;99.90;;;;;;5049732;28;20029;-72
2021/01/01 07:50:41;;;;;;;26.35;14.38;;;1.60;99.90;;;;;;5049026;28;20032;-72
2021/01/01 07:53:09;;;;;;;23.80;13.55;;;1.60;99.90;;;;;;5048990;28;20032;-72
2021/01/01 07:55:35;;;;;;;27.52;14.00;;;1.60;99.90;;;;;;5050419;28;20095;-72
2021/01/01 07:58:14;;;;;;;30.98;15.48;;;1.60;99.90;;;;;;5053250;28;20025;-73
2021/01/01 08:00:44;;;;;;;22.17;13.63;;;1.50;99.90;;;;;;5054035;28;20021;-72
2021/01/01 08:03:11;;;;;;;25.13;13.13;;;1.50;99.90;;;;;;5052476;28;20021;-72
2021/01/01 08:05:36;;;;;;;23.13;13.52;;;1.40;99.90;;;;;;5053554;28;20071;-72
2021/01/01 08:08:16;;;;;;;26.88;14.63;;;1.30;99.90;;;;;;5052814;28;20439;-71
2021/01/01 08:10:44;;;;;;;24.70;13.32;;;1.30;99.90;;;;;;5052319;28;20028;-72
2021/01/01 08:13:21;;;;;;;26.70;14.48;;;1.30;99.90;;;;;;5052045;28;20054;-72
2021/01/01 08:15:49;;;;;;;27.20;13.45;;;1.40;99.90;;;;;;5053034;28;20025;-72
2021/01/01 08:18:23;;;;;;;25.20;13.25;;;1.50;99.90;;;;;;5050187;28;20025;-71
2021/01/01 08:20:55;;;;;;;25.52;13.02;;;1.60;99.90;;;;;;5053107;28;20028;-72
2021/01/01 08:23:20;;;;;;;27.42;14.25;;;1.70;99.90;;;;;;5051695;28;20427;-72
2021/01/01 08:25:47;;;;;;;35.42;20.45;;;1.80;99.90;;;;;;5052679;28;20243;-71
2021/01/01 08:28:22;;;;;;;25.92;13.77;;;1.80;99.90;;;;;;5050965;28;20483;-71
2021/01/01 08:31:01;;;;;;;31.75;15.32;;;2.00;99.90;;;;;;5053092;28;20040;-71
2021/01/01 08:33:30;;;;;;;31.38;17.88;;;2.10;99.90;;;;;;5051689;28;20025;-71
2021/01/01 08:36:00;;;;;;;29.02;16.58;;;2.10;99.90;;;;;;5052617;28;20076;-71
2021/01/01 08:38:25;;;;;;;33.78;20.45;;;2.10;99.90;;;;;;5049507;28;20028;-71
2021/01/01 08:40:56;;;;;;;33.45;20.92;;;2.10;99.90;;;;;;5053016;28;20029;-71
2021/01/01 08:43:23;;;;;;;32.80;18.73;;;2.10;99.90;;;;;;5050708;28;20079;-71
2021/01/01 08:45:49;;;;;;;29.00;17.10;;;2.00;99.90;;;;;;5052888;28;20025;-71
2021/01/01 08:48:16;;;;;;;31.48;17.55;;;1.90;99.90;;;;;;5051375;28;20499;-71
2021/01/01 08:50:47;;;;;;;32.35;20.45;;;1.80;99.90;;;;;;5052876;28;20029;-71
2021/01/01 08:53:13;;;;;;;40.38;21.20;;;1.80;99.90;;;;;;5051522;28;20419;-72
2021/01/01 08:55:39;;;;;;;30.85;18.88;;;1.80;99.90;;;;;;5051352;28;20127;-71
2021/01/01 08:58:16;;;;;;;34.83;19.25;;;1.70;99.90;;;;;;5052195;28;20092;-71
2021/01/01 09:00:43;;;;;;;30.65;17.85;;;1.70;99.90;;;;;;5052731;28;20036;-71
2021/01/01 09:03:10;;;;;;;26.70;16.48;;;1.70;99.90;;;;;;5052649;28;20017;-71
2021/01/01 09:05:36;;;;;;;37.83;19.92;;;1.70;99.90;;;;;;5051186;28;20052;-72
2021/01/01 09:08:08;;;;;;;38.17;20.33;;;1.70;99.90;;;;;;5050569;28;20021;-71
2021/01/01 09:10:33;;;;;;;36.28;21.08;;;1.70;99.90;;;;;;5052551;28;20047;-71
2021/01/01 09:12:59;;;;;;;40.30;22.02;;;1.70;99.90;;;;;;5052464;28;20021;-71
2021/01/01 09:15:30;;;;;;;32.65;19.45;;;1.80;99.90;;;;;;5052357;28;20025;-71
2021/01/01 09:18:06;;;;;;;39.45;22.65;;;1.80;99.90;;;;;;5050417;28;20021;-71
2021/01/01 09:20:33;;;;;;;32.55;18.83;;;1.90;99.90;;;;;;5051176;28;20112;-71
2021/01/01 09:23:03;;;;;;;37.08;21.00;;;1.90;99.90;;;;;;5052252;28;20071;-71
2021/01/01 09:25:32;;;;;;;32.67;20.65;;;2.20;99.90;;;;;;5052337;28;20017;-71
2021/01/01 09:27:58;;;;;;;29.73;17.77;;;2.50;99.90;;;;;;5051647;28;20025;-71
2021/01/01 09:30:30;;;;;;;32.05;18.42;;;2.70;99.90;;;;;;5052042;28;20048;-71
2021/01/01 09:32:57;;;;;;;142.13;100.30;;;2.70;99.90;;;;;;5050895;28;20033;-71
2021/01/01 09:35:24;;;;;;;30.83;20.02;;;2.50;99.90;;;;;;5050681;28;20036;-71
2021/01/01 09:37:59;;;;;;;33.63;20.27;;;2.40;99.90;;;;;;5051308;28;20056;-71
2021/01/01 09:40:27;;;;;;;34.70;20.98;;;2.30;99.90;;;;;;5051963;28;20021;-71
2021/01/01 09:42:53;;;;;;;45.17;27.13;;;2.30;99.90;;;;;;5051821;28;20100;-71
2021/01/01 09:45:19;;;;;;;32.08;19.25;;;2.30;99.90;;;;;;5051785;28;20017;-71
2021/01/01 09:47:45;;;;;;;31.88;21.20;;;2.50;99.90;;;;;;5048920;28;20028;-72
2021/01/01 09:50:11;;;;;;;31.42;20.27;;;2.80;99.90;;;;;;5050478;28;20025;-70
2021/01/01 09:52:38;;;;;;;41.35;25.60;;;3.00;99.90;;;;;;5050819;28;20071;-71
2021/01/01 09:55:05;;;;;;;60.78;36.08;;;3.00;99.90;;;;;;5051601;28;20029;-71
2021/01/01 09:57:31;;;;;;;56.78;36.13;;;3.10;99.90;;;;;;5050845;28;20029;-71
2021/01/01 09:59:57;;;;;;;47.05;27.35;;;3.00;99.90;;;;;;5050236;28;20033;-71
2021/01/01 10:02:23;;;;;;;41.35;27.52;;;2.80;99.90;;;;;;5051526;28;20032;-71
2021/01/01 10:04:48;;;;;;;43.05;24.35;;;2.90;99.90;;;;;;5051441;28;20040;-71
2021/01/01 10:07:15;;;;;;;34.55;20.85;;;2.80;99.90;;;;;;5049408;28;20028;-71
2021/01/01 10:09:44;;;;;;;32.95;21.05;;;2.90;99.90;;;;;;5050121;28;20055;-71
2021/01/01 10:12:11;;;;;;;34.15;22.08;;;3.20;99.90;;;;;;5049996;28;20035;-71
2021/01/01 10:14:37;;;;;;;35.13;23.27;;;3.00;99.90;;;;;;5049900;28;20025;-71
2021/01/01 10:17:03;;;;;;;39.50;23.95;;;3.10;99.90;;;;;;5049176;28;20047;-72
2021/01/01 10:19:28;;;;;;;33.97;21.35;;;3.10;99.90;;;;;;5049397;28;20025;-71
2021/01/01 10:21:54;;;;;;;37.05;22.83;;;3.10;99.90;;;;;;5049826;28;20090;-71
2021/01/01 10:24:19;;;;;;;38.50;25.52;;;2.90;99.90;;;;;;5049796;28;20501;-72
2021/01/01 10:26:53;;;;;;;37.15;23.08;;;2.90;99.90;;;;;;5049219;28;20031;-71
2021/01/01 10:29:19;;;;;;;35.08;22.05;;;2.90;99.90;;;;;;5049821;28;20028;-71
2021/01/01 10:31:45;;;;;;;33.58;22.13;;;2.90;99.90;;;;;;5048182;28;20510;-71
2021/01/01 10:34:11;;;;;;;30.35;18.45;;;3.00;99.90;;;;;;5049629;28;20056;-71
2021/01/01 10:36:37;;;;;;;30.15;18.67;;;3.30;99.90;;;;;;5050092;28;20033;-71
2021/01/01 10:39:04;;;;;;;33.58;20.30;;;3.30;99.90;;;;;;5049698;28;20021;-71
2021/01/01 10:41:29;;;;;;;38.80;23.17;;;3.60;99.90;;;;;;5050922;28;20025;-71
2021/01/01 10:43:55;;;;;;;40.00;24.45;;;3.70;99.90;;;;;;5050791;28;20672;-71
2021/01/01 10:46:20;;;;;;;33.75;21.83;;;3.60;99.90;;;;;;5050131;28;20025;-71
2021/01/01 10:48:46;;;;;;;34.95;21.60;;;3.60;99.90;;;;;;5050712;28;20040;-71
2021/01/01 10:51:19;;;;;;;33.58;20.85;;;3.70;99.90;;;;;;5050800;28;20025;-71
2021/01/01 10:53:44;;;;;;;40.33;23.98;;;3.60;99.90;;;;;;5050822;28;20052;-71
2021/01/01 10:56:10;;;;;;;48.90;25.50;;;3.70;99.90;;;;;;5049850;28;20076;-71
2021/01/01 10:58:35;;;;;;;35.40;21.00;;;3.90;99.90;;;;;;5050541;28;20044;-71
2021/01/01 11:01:01;;;;;;;26.65;17.00;;;4.00;99.90;;;;;;5050778;28;20021;-72
2021/01/01 11:03:26;;;;;;;27.88;17.17;;;4.10;99.80;;;;;;5066099;28;20025;-71
2021/01/01 11:05:52;;;;;;;49.85;30.33;;;4.20;99.70;;;;;;5050576;28;20033;-71
2021/01/01 11:08:17;;;;;;;40.50;23.33;;;4.20;99.70;;;;;;5050206;28;20506;-72
2021/01/01 11:10:43;;;;;;;40.38;23.48;;;4.30;99.50;;;;;;5050705;28;20078;-71
2021/01/01 11:13:08;;;;;;;34.45;20.77;;;4.10;99.80;;;;;;5050775;28;20078;-71
2021/01/01 12:19:52;;;;;;;36.95;20.23;;;4.20;99.90;;;;;;5032548;28;20068;-73
2021/01/01 12:22:14;;;;;;;35.72;19.40;;;4.20;99.90;;;;;;5019879;28;20018;-73
2021/01/01 12:24:46;;;;;;;37.42;20.27;;;4.30;99.90;;;;;;5033397;28;20563;-73
2021/01/01 12:27:15;;;;;;;38.45;19.75;;;4.30;99.90;;;;;;5032578;28;20030;-73
2021/01/01 12:29:41;;;;;;;31.85;18.73;;;4.50;99.90;;;;;;5032032;28;20029;-73
2021/01/01 12:32:07;;;;;;;34.72;20.02;;;4.60;99.90;;;;;;5033357;28;20036;-73
2021/01/01 12:34:33;;;;;;;34.88;19.92;;;4.60;99.90;;;;;;5033216;28;20069;-73
2021/01/01 12:36:58;;;;;;;33.42;17.95;;;4.60;99.90;;;;;;5032489;28;20037;-72
2021/01/01 12:39:23;;;;;;;30.30;17.85;;;4.60;99.90;;;;;;5033215;28;20080;-72
2021/01/01 12:41:49;;;;;;;33.28;17.92;;;4.70;99.90;;;;;;5032699;28;20384;-73
2021/01/01 12:44:15;;;;;;;32.63;17.98;;;4.70;99.90;;;;;;5033115;28;20017;-73
2021/01/01 12:46:41;;;;;;;29.05;18.50;;;4.70;99.90;;;;;;5032530;28;20430;-73
2021/01/01 12:49:06;;;;;;;33.40;18.42;;;4.70;99.90;;;;;;5032986;28;20036;-74
2021/01/01 12:51:32;;;;;;;33.20;19.15;;;4.50;99.90;;;;;;5032976;28;20026;-73
2021/01/01 12:53:57;;;;;;;31.13;18.60;;;4.40;99.90;;;;;;5031659;28;20025;-73
2021/01/01 12:56:23;;;;;;;32.90;18.45;;;4.40;99.90;;;;;;5032060;28;20025;-73
2021/01/01 12:58:48;;;;;;;31.98;19.55;;;4.40;99.90;;;;;;5032846;28;20029;-73
2021/01/01 13:01:15;;;;;;;35.10;21.85;;;4.50;99.90;;;;;;5031494;28;20021;-72
2021/01/01 13:03:40;;;;;;;41.80;22.27;;;4.60;99.90;;;;;;5032652;28;20079;-73
2021/01/01 13:06:06;;;;;;;46.25;28.02;;;4.60;99.90;;;;;;5030981;28;20523;-73
2021/01/01 13:08:31;;;;;;;41.63;25.35;;;4.50;99.90;;;;;;5032437;28;20045;-72
2021/01/01 13:10:57;;;;;;;42.17;25.90;;;4.50;99.90;;;;;;5032690;28;20399;-73
2021/01/01 13:13:22;;;;;;;39.38;22.55;;;4.50;99.90;;;;;;5048027;28;20544;-73
2021/01/01 13:15:48;;;;;;;40.08;24.13;;;4.40;99.90;;;;;;5031191;28;20400;-72
2021/01/01 13:18:14;;;;;;;37.38;21.52;;;4.40;99.90;;;;;;5047214;28;20049;-72
2021/01/01 13:20:41;;;;;;;39.97;22.42;;;4.30;99.90;;;;;;5031212;28;20476;-73
2021/01/01 13:23:07;;;;;;;35.10;21.27;;;4.40;99.90;;;;;;5032469;28;20053;-72
2021/01/01 13:25:32;;;;;;;37.60;21.50;;;4.30;99.90;;;;;;5032381;28;20623;-73
2021/01/01 13:27:58;;;;;;;34.78;19.65;;;4.20;99.90;;;;;;5047261;28;20113;-73
2021/01/01 13:30:24;;;;;;;33.47;19.48;;;4.10;99.90;;;;;;5032339;28;20026;-72
2021/01/01 13:32:51;;;;;;;33.75;20.02;;;4.10;99.90;;;;;;5032385;28;20048;-72
2021/01/01 13:35:18;;;;;;;33.15;20.13;;;4.10;99.90;;;;;;5047586;28;20029;-72
2021/01/01 13:37:44;;;;;;;39.33;23.08;;;4.10;99.90;;;;;;5031662;28;20096;-73
2021/01/01 13:40:10;;;;;;;51.92;28.45;;;4.10;99.90;;;;;;5047572;28;20500;-73
2021/01/01 13:42:36;;;;;;;73.40;37.60;;;4.20;99.90;;;;;;5031898;28;20388;-72
2021/01/01 13:45:02;;;;;;;40.80;24.77;;;4.20;99.90;;;;;;5031884;28;20025;-72